createdAt,value
2023-05-10T00:00:14.670Z,98409.15
2023-05-10T00:03:05.509Z,98408.98
2023-05-10T00:05:33.755Z,98407.59
2023-05-10T00:08:01.782Z,98404.61
2023-05-10T00:10:30.180Z,98403.45
2023-05-10T00:12:58.116Z,98395.70
2023-05-10T00:15:26.183Z,98393.14
2023-05-10T00:17:54.188Z,98393.43
2023-05-10T00:20:22.218Z,98390.55
2023-05-10T00:22:50.347Z,98391.23
2023-05-10T00:25:18.253Z,98386.38
2023-05-10T00:27:46.276Z,98384.02
2023-05-10T00:30:14.734Z,98383.80
2023-05-10T00:32:44.422Z,98382.00
2023-05-10T00:35:12.471Z,98383.90
2023-05-10T00:37:40.477Z,98380.59
2023-05-10T00:40:08.741Z,98375.65
2023-05-10T00:42:36.967Z,98376.96
2023-05-10T00:45:05.760Z,98377.70
2023-05-10T00:47:34.034Z,98378.36
2023-05-10T00:50:02.791Z,98372.38
2023-05-10T00:52:31.278Z,98372.14
2023-05-10T00:55:00.117Z,98375.13
2023-05-10T00:57:28.485Z,98376.92
2023-05-10T00:59:56.359Z,98376.34
2023-05-10T01:02:25.356Z,98376.17
2023-05-10T01:04:55.532Z,98374.56
2023-05-10T01:07:24.506Z,98374.44
2023-05-10T01:09:52.721Z,98371.23
2023-05-10T01:12:21.181Z,98369.95
2023-05-10T01:14:50.299Z,98369.12
2023-05-10T01:17:18.605Z,98366.03
2023-05-10T01:19:47.093Z,98363.64
2023-05-10T01:22:34.186Z,98366.36
2023-05-10T01:25:20.704Z,98364.23
2023-05-10T01:27:56.006Z,98364.44
2023-05-10T01:31:04.795Z,98362.80
2023-05-10T01:33:43.296Z,98365.61
2023-05-10T01:36:31.951Z,98368.13
2023-05-10T01:39:17.725Z,98365.65
2023-05-10T01:42:09.344Z,98364.50
2023-05-10T01:44:39.021Z,98359.36
2023-05-10T01:47:15.597Z,98361.39
2023-05-10T01:49:47.634Z,98356.95
2023-05-10T01:52:18.643Z,98354.42
2023-05-10T01:54:54.835Z,98355.79
2023-05-10T01:57:23.347Z,98354.88
2023-05-10T01:59:51.499Z,98353.23
2023-05-10T02:02:21.648Z,98352.23
2023-05-10T02:04:50.603Z,98350.22
2023-05-10T02:07:18.511Z,98348.18
2023-05-10T02:09:49.358Z,98348.11
2023-05-10T02:12:17.565Z,98345.52
2023-05-10T02:14:45.461Z,98349.52
2023-05-10T02:17:13.718Z,98346.85
2023-05-10T02:19:42.818Z,98345.20
2023-05-10T02:22:11.014Z,98342.31
2023-05-10T02:24:39.029Z,98342.10
2023-05-10T02:27:06.973Z,98342.23
2023-05-10T02:29:34.945Z,98342.77
2023-05-10T02:32:03.035Z,98343.47
2023-05-10T02:34:31.733Z,98339.81
2023-05-10T02:36:59.758Z,98346.73
2023-05-10T02:39:29.375Z,98341.22
2023-05-10T02:41:58.577Z,98345.66
2023-05-10T02:44:26.857Z,98346.95
2023-05-10T02:46:57.055Z,98345.66
2023-05-10T02:49:25.066Z,98345.13
2023-05-10T02:51:58.045Z,98344.06
2023-05-10T02:54:29.722Z,98348.14
2023-05-10T02:56:58.881Z,98344.30
2023-05-10T02:59:26.808Z,98349.13
2023-05-10T03:01:55.292Z,98350.25
2023-05-10T03:04:23.366Z,98349.75
2023-05-10T03:06:52.887Z,98350.85
2023-05-10T03:09:22.606Z,98348.22
2023-05-10T03:12:15.596Z,98349.42
2023-05-10T03:15:04.641Z,98348.42
2023-05-10T03:17:43.948Z,98349.52
2023-05-10T03:20:12.911Z,98350.50
2023-05-10T03:22:52.732Z,98352.07
2023-05-10T03:25:21.082Z,98350.95
2023-05-10T03:27:49.209Z,98348.80
2023-05-10T03:30:17.912Z,98351.66
2023-05-10T03:32:46.525Z,98349.67
2023-05-10T03:35:16.310Z,98346.09
2023-05-10T03:37:44.603Z,98349.10
2023-05-10T03:40:12.938Z,98352.98
2023-05-10T03:42:43.194Z,98355.54
2023-05-10T03:45:11.709Z,98353.92
2023-05-10T03:47:40.173Z,98350.45
2023-05-10T03:50:08.709Z,98353.36
2023-05-10T03:52:36.931Z,98352.77
2023-05-10T03:55:05.433Z,98351.77
2023-05-10T03:57:33.668Z,98354.99
2023-05-10T04:00:02.016Z,98354.83
2023-05-10T04:02:31.361Z,98356.52
2023-05-10T04:04:59.753Z,98358.98
2023-05-10T04:07:27.729Z,98355.29
2023-05-10T04:09:55.672Z,98352.86
2023-05-10T04:12:24.512Z,98357.44
2023-05-10T04:14:52.577Z,98351.54
2023-05-10T04:17:20.853Z,98351.16
2023-05-10T04:19:49.229Z,98353.22
2023-05-10T04:22:18.637Z,98356.06
2023-05-10T04:24:46.638Z,98359.23
2023-05-10T04:27:14.668Z,98362.79
2023-05-10T04:29:42.858Z,98360.59
2023-05-10T04:32:11.203Z,98364.64
2023-05-10T04:34:39.424Z,98364.34
2023-05-10T04:37:08.677Z,98365.16
2023-05-10T04:39:36.540Z,98368.25
2023-05-10T04:42:04.552Z,98365.42
2023-05-10T04:44:33.551Z,98370.23
2023-05-10T04:47:03.206Z,98369.77
2023-05-10T04:49:31.408Z,98368.66
2023-05-10T04:51:59.407Z,98369.88
2023-05-10T04:54:27.466Z,98370.54
2023-05-10T04:56:55.568Z,98371.10
2023-05-10T04:59:23.602Z,98371.48
2023-05-10T05:01:51.670Z,98375.67
2023-05-10T05:04:20.257Z,98372.02
2023-05-10T05:06:48.106Z,98371.73
2023-05-10T05:09:16.504Z,98371.44
2023-05-10T05:11:44.426Z,98371.05
2023-05-10T05:14:12.283Z,98372.88
2023-05-10T05:16:40.364Z,98368.48
2023-05-10T05:19:08.440Z,98370.48
2023-05-10T05:21:36.979Z,98370.50
2023-05-10T05:24:05.863Z,98367.08
2023-05-10T05:26:34.347Z,98364.65
2023-05-10T05:29:02.898Z,98360.46
2023-05-10T05:31:30.883Z,98358.52
2023-05-10T05:33:58.855Z,98361.02
2023-05-10T05:36:26.783Z,98364.27
2023-05-10T05:38:54.793Z,98368.91
2023-05-10T05:41:22.777Z,98368.09
2023-05-10T05:43:50.671Z,98371.56
2023-05-10T05:46:18.750Z,98372.36
2023-05-10T05:48:47.305Z,98374.14
2023-05-10T05:51:15.562Z,98378.39
2023-05-10T05:53:43.562Z,98378.44
2023-05-10T05:56:11.526Z,98375.52
2023-05-10T05:58:39.518Z,98381.54
2023-05-10T06:01:08.672Z,98384.21
2023-05-10T06:03:36.892Z,98381.05
2023-05-10T06:06:05.368Z,98383.11
2023-05-10T06:08:33.541Z,98384.95
2023-05-10T06:11:02.142Z,98382.89
2023-05-10T06:13:33.348Z,98383.73
2023-05-10T06:16:02.389Z,98383.70
2023-05-10T06:18:30.339Z,98381.48
2023-05-10T06:20:58.546Z,98383.38
2023-05-10T06:23:26.558Z,98384.88
2023-05-10T06:25:55.036Z,98378.58
2023-05-10T06:28:23.077Z,98386.05
2023-05-10T06:30:51.553Z,98385.52
2023-05-10T06:33:19.663Z,98393.03
2023-05-10T06:35:48.316Z,98386.02
2023-05-10T06:38:16.233Z,98387.24
2023-05-10T06:40:44.354Z,98386.03
2023-05-10T06:43:12.292Z,98385.77
2023-05-10T06:45:40.688Z,98384.55
2023-05-10T06:48:08.925Z,98387.79
2023-05-10T06:50:37.160Z,98392.54
2023-05-10T06:53:05.436Z,98394.17
2023-05-10T06:55:33.358Z,98394.65
2023-05-10T06:58:01.353Z,98395.20
2023-05-10T07:00:29.402Z,98396.57
2023-05-10T07:02:57.498Z,98397.56
2023-05-10T07:05:25.573Z,98395.82
2023-05-10T07:07:53.484Z,98399.09
2023-05-10T07:10:21.621Z,98399.25
2023-05-10T07:12:49.748Z,98401.69
2023-05-10T07:15:18.277Z,98400.26
2023-05-10T07:17:46.972Z,98399.29
2023-05-10T07:20:15.550Z,98404.98
2023-05-10T07:22:44.147Z,98404.91
2023-05-10T07:25:12.276Z,98402.22
2023-05-10T07:27:40.248Z,98402.91
2023-05-10T07:30:09.349Z,98405.45
2023-05-10T07:32:37.706Z,98403.09
2023-05-10T07:35:06.572Z,98401.66
2023-05-10T07:37:34.708Z,98406.39
2023-05-10T07:40:03.230Z,98406.63
2023-05-10T07:42:31.340Z,98402.85
2023-05-10T07:44:59.260Z,98404.59
2023-05-10T07:47:27.223Z,98409.48
2023-05-10T07:49:55.302Z,98408.05
2023-05-10T07:52:23.242Z,98410.65
2023-05-10T07:54:51.413Z,98406.65
2023-05-10T07:57:19.428Z,98407.40
2023-05-10T07:59:48.026Z,98402.79
2023-05-10T08:02:16.056Z,98407.63
2023-05-10T08:04:44.119Z,98412.28
2023-05-10T08:07:12.508Z,98414.50
2023-05-10T08:09:40.549Z,98413.02
2023-05-10T08:12:08.659Z,98411.83
2023-05-10T08:14:37.632Z,98410.52
2023-05-10T08:17:05.545Z,98417.21
2023-05-10T08:19:33.851Z,98417.13
2023-05-10T08:22:01.868Z,98413.13
2023-05-10T08:24:29.785Z,98412.55
2023-05-10T08:26:58.331Z,98409.70
2023-05-10T08:29:28.281Z,98418.90
2023-05-10T08:31:56.390Z,98417.23
2023-05-10T08:34:24.875Z,98416.84
2023-05-10T08:36:53.241Z,98415.57
2023-05-10T08:39:29.742Z,98419.36
2023-05-10T08:41:59.229Z,98417.11
2023-05-10T08:44:27.168Z,98419.13
2023-05-10T08:46:55.470Z,98422.25
2023-05-10T08:49:23.518Z,98423.42
2023-05-10T08:51:53.294Z,98421.14
2023-05-10T08:54:21.910Z,98422.87
2023-05-10T08:56:49.975Z,98418.93
2023-05-10T08:59:18.104Z,98418.52
2023-05-10T09:01:46.718Z,98417.55
2023-05-10T09:04:14.877Z,98421.30
2023-05-10T09:06:42.874Z,98421.77
2023-05-10T09:09:11.022Z,98422.58
2023-05-10T09:11:39.269Z,98426.23
2023-05-10T09:14:07.202Z,98422.35
2023-05-10T09:16:35.459Z,98423.66
2023-05-10T09:19:03.995Z,98417.80
2023-05-10T09:21:32.257Z,98422.16
2023-05-10T09:24:04.230Z,98415.59
2023-05-10T09:26:32.334Z,98408.36
2023-05-10T09:29:00.840Z,98405.33
2023-05-10T09:31:48.553Z,98403.11
2023-05-10T09:34:20.170Z,98402.39
2023-05-10T09:36:58.544Z,98393.80
2023-05-10T09:39:39.035Z,98393.35
2023-05-10T09:42:10.674Z,98394.31
2023-05-10T09:44:39.495Z,98391.21
2023-05-10T09:47:07.429Z,98388.17
2023-05-10T09:49:36.033Z,98378.87
2023-05-10T09:52:05.364Z,98380.31
2023-05-10T09:54:34.481Z,98382.20
2023-05-10T09:57:02.871Z,98379.93
2023-05-10T09:59:31.509Z,98376.39
2023-05-10T10:02:00.756Z,98378.95
2023-05-10T10:04:29.020Z,98379.13
2023-05-10T10:07:04.563Z,98382.20
2023-05-10T10:09:32.991Z,98380.70
2023-05-10T10:12:01.839Z,98378.64
2023-05-10T10:14:30.171Z,98380.83
2023-05-10T10:17:06.649Z,98382.79
2023-05-10T10:19:38.867Z,98382.88
2023-05-10T10:22:07.098Z,98382.23
2023-05-10T10:24:35.233Z,98381.91
2023-05-10T10:27:34.053Z,98370.94
2023-05-10T10:30:11.192Z,98372.74
2023-05-10T10:32:43.815Z,98374.10
2023-05-10T10:35:12.085Z,98374.39
2023-05-10T10:37:47.420Z,98370.45
2023-05-10T10:40:42.103Z,98367.38
2023-05-10T10:43:23.498Z,98368.34
2023-05-10T10:46:10.921Z,98365.94
2023-05-10T10:48:38.875Z,98365.83
2023-05-10T10:51:06.790Z,98365.41
2023-05-10T10:53:34.931Z,98367.01
2023-05-10T10:56:10.691Z,98365.13
2023-05-10T10:58:39.214Z,98364.45
2023-05-10T11:01:36.797Z,98362.24
2023-05-10T11:04:05.342Z,98359.08
2023-05-10T11:06:34.725Z,98360.33
2023-05-10T11:09:09.742Z,98357.77
2023-05-10T11:11:38.038Z,98352.35
2023-05-10T11:14:07.956Z,98354.23
2023-05-10T11:16:42.633Z,98353.14
2023-05-10T11:19:12.688Z,98352.98
2023-05-10T11:21:55.276Z,98353.03
2023-05-10T11:24:24.051Z,98352.42
2023-05-10T11:26:55.329Z,98348.77
2023-05-10T11:29:23.894Z,98350.27
2023-05-10T11:31:52.134Z,98349.85
2023-05-10T11:34:26.726Z,98347.38
2023-05-10T11:36:55.688Z,98348.27
2023-05-10T11:39:32.624Z,98347.86
2023-05-10T11:42:01.194Z,98347.50
2023-05-10T11:44:32.948Z,98349.06
2023-05-10T11:47:04.355Z,98350.84
2023-05-10T11:49:32.801Z,98354.17
2023-05-10T11:52:08.317Z,98355.63
2023-05-10T11:54:37.060Z,98354.27
2023-05-10T11:57:05.199Z,98354.14
2023-05-10T11:59:33.248Z,98351.29
2023-05-10T12:02:01.193Z,98352.94
2023-05-10T12:04:30.803Z,98350.86
2023-05-10T12:06:58.710Z,98344.86
2023-05-10T12:09:39.507Z,98347.52
2023-05-10T12:12:12.160Z,98341.73
2023-05-10T12:14:40.113Z,98341.83
2023-05-10T12:17:12.996Z,98346.20
2023-05-10T12:19:42.413Z,98342.58
2023-05-10T12:22:11.151Z,98343.77
2023-05-10T12:24:39.829Z,98341.04
2023-05-10T12:27:09.457Z,98338.93
2023-05-10T12:29:37.703Z,98331.28
2023-05-10T12:32:05.693Z,98333.67
2023-05-10T12:34:36.063Z,98334.05
2023-05-10T12:37:06.637Z,98324.30
2023-05-10T12:39:44.717Z,98326.12
2023-05-10T12:42:12.994Z,98324.99
2023-05-10T12:44:41.358Z,98321.03
2023-05-10T12:47:09.361Z,98317.98
2023-05-10T12:49:37.491Z,98317.98
2023-05-10T12:52:05.541Z,98316.11
2023-05-10T12:54:33.503Z,98311.33
2023-05-10T12:57:01.477Z,98308.09
2023-05-10T12:59:29.580Z,98310.52
2023-05-10T13:01:59.220Z,98305.02
2023-05-10T13:04:27.234Z,98306.10
2023-05-10T13:06:59.429Z,98304.86
2023-05-10T13:09:28.112Z,98302.23
2023-05-10T13:11:56.341Z,98300.38
2023-05-10T13:14:25.208Z,98301.48
2023-05-10T13:16:53.158Z,98299.25
2023-05-10T13:19:21.395Z,98295.13
2023-05-10T13:21:49.468Z,98295.20
2023-05-10T13:24:18.044Z,98291.41
2023-05-10T13:26:46.655Z,98288.55
2023-05-10T13:29:16.116Z,98286.74
2023-05-10T13:31:44.127Z,98281.80
2023-05-10T13:34:12.339Z,98276.31
2023-05-10T13:36:40.658Z,98274.00
2023-05-10T13:39:08.569Z,98268.58
2023-05-10T13:41:36.601Z,98269.33
2023-05-10T13:44:04.652Z,98268.16
2023-05-10T13:46:33.252Z,98267.52
2023-05-10T13:49:01.551Z,98271.23
2023-05-10T13:51:29.621Z,98268.13
2023-05-10T13:53:57.668Z,98271.94
2023-05-10T13:56:25.630Z,98271.19
2023-05-10T13:58:53.647Z,98267.05
2023-05-10T14:01:21.986Z,98267.96
2023-05-10T14:03:50.008Z,98269.58
2023-05-10T14:06:18.542Z,98269.04
2023-05-10T14:08:47.460Z,98271.35
2023-05-10T14:11:15.507Z,98268.14
2023-05-10T14:13:43.584Z,98265.77
2023-05-10T14:16:11.916Z,98263.11
2023-05-10T14:18:39.862Z,98265.65
2023-05-10T14:21:07.825Z,98264.45
2023-05-10T14:23:35.847Z,98262.75
2023-05-10T14:26:04.247Z,98261.50
2023-05-10T14:28:32.585Z,98261.58
2023-05-10T14:31:00.595Z,98261.56
2023-05-10T14:33:28.702Z,98260.14
2023-05-10T14:35:58.005Z,98259.05
2023-05-10T14:38:25.909Z,98255.40
2023-05-10T14:40:53.809Z,98256.59
2023-05-10T14:43:22.101Z,98251.46
2023-05-10T14:45:50.271Z,98253.90
2023-05-10T14:48:18.714Z,98259.30
2023-05-10T14:50:47.872Z,98257.15
2023-05-10T14:53:15.937Z,98257.71
2023-05-10T14:55:43.907Z,98256.86
2023-05-10T14:58:12.394Z,98252.55
2023-05-10T15:00:41.342Z,98255.41
2023-05-10T15:03:10.050Z,98252.52
2023-05-10T15:05:38.880Z,98255.85
2023-05-10T15:08:07.171Z,98251.94
2023-05-10T15:10:35.360Z,98250.54
2023-05-10T15:13:04.848Z,98250.86
2023-05-10T15:15:32.959Z,98247.61
2023-05-10T15:18:00.841Z,98246.09
2023-05-10T15:20:29.052Z,98249.02
2023-05-10T15:22:57.282Z,98242.30
2023-05-10T15:25:25.397Z,98240.40
2023-05-10T15:27:53.359Z,98240.73
2023-05-10T15:30:21.688Z,98237.79
2023-05-10T15:32:49.864Z,98238.24
2023-05-10T15:35:18.221Z,98233.94
2023-05-10T15:37:48.003Z,98235.77
2023-05-10T15:40:16.280Z,98233.52
2023-05-10T15:42:44.237Z,98232.64
2023-05-10T15:45:12.551Z,98232.48
2023-05-10T15:47:41.107Z,98231.91
2023-05-10T15:50:10.134Z,98228.25
2023-05-10T15:52:38.259Z,98227.55
2023-05-10T15:55:12.850Z,98227.96
2023-05-10T15:57:41.713Z,98234.37
2023-05-10T16:00:10.745Z,98233.38
2023-05-10T16:02:41.635Z,98231.84
2023-05-10T16:05:10.032Z,98234.08
2023-05-10T16:07:38.239Z,98232.84
2023-05-10T16:10:07.280Z,98231.61
2023-05-10T16:12:35.618Z,98233.21
2023-05-10T16:15:03.937Z,98234.59
2023-05-10T16:17:32.412Z,98234.64
2023-05-10T16:20:01.244Z,98234.14
2023-05-10T16:22:29.850Z,98233.79
2023-05-10T16:24:57.911Z,98233.83
2023-05-10T16:27:28.648Z,98234.03
2023-05-10T16:29:56.705Z,98231.42
2023-05-10T16:32:24.763Z,98237.06
2023-05-10T16:34:53.487Z,98237.02
2023-05-10T16:37:21.620Z,98237.52
2023-05-10T16:39:50.145Z,98231.82
2023-05-10T16:42:18.197Z,98234.66
2023-05-10T16:44:46.246Z,98237.17
2023-05-10T16:47:14.237Z,98237.31
2023-05-10T16:49:42.726Z,98239.42
2023-05-10T16:52:11.230Z,98238.17
2023-05-10T16:54:39.264Z,98236.89
2023-05-10T16:57:08.594Z,98237.60
2023-05-10T16:59:36.530Z,98238.36
2023-05-10T17:02:04.496Z,98236.52
2023-05-10T17:04:32.468Z,98232.75
2023-05-10T17:07:00.443Z,98235.64
2023-05-10T17:09:28.357Z,98238.12
2023-05-10T17:11:56.241Z,98235.73
2023-05-10T17:14:24.127Z,98233.55
2023-05-10T17:16:53.225Z,98233.23
2023-05-10T17:19:23.071Z,98235.60
2023-05-10T17:21:52.141Z,98235.58
2023-05-10T17:24:20.292Z,98238.67
2023-05-10T17:26:48.267Z,98236.21
2023-05-10T17:29:16.318Z,98244.39
2023-05-10T17:31:44.291Z,98243.54
2023-05-10T17:34:12.346Z,98244.86
2023-05-10T17:36:40.936Z,98246.34
2023-05-10T17:39:09.557Z,98248.37
2023-05-10T17:41:37.559Z,98249.23
2023-05-10T17:44:05.536Z,98251.46
2023-05-10T17:46:33.708Z,98254.69
2023-05-10T17:49:01.644Z,98258.07
2023-05-10T17:51:29.702Z,98261.00
2023-05-10T17:53:57.696Z,98262.24
2023-05-10T17:56:25.694Z,98269.38
2023-05-10T17:58:53.665Z,98268.35
2023-05-10T18:01:21.652Z,98271.48
2023-05-10T18:03:49.749Z,98276.98
2023-05-10T18:06:17.954Z,98279.28
2023-05-10T18:08:45.872Z,98283.52
2023-05-10T18:11:14.042Z,98282.61
2023-05-10T18:13:42.207Z,98283.75
2023-05-10T18:16:12.756Z,98292.58
2023-05-10T18:18:41.023Z,98293.36
2023-05-10T18:21:08.979Z,98301.40
2023-05-10T18:23:37.311Z,98301.56
2023-05-10T18:26:05.413Z,98307.48
2023-05-10T18:28:33.393Z,98309.78
2023-05-10T18:31:01.472Z,98314.08
2023-05-10T18:33:29.558Z,98317.38
2023-05-10T18:35:57.417Z,98320.30
2023-05-10T18:38:25.665Z,98322.16
2023-05-10T18:40:53.847Z,98321.73
2023-05-10T18:43:21.792Z,98324.13
2023-05-10T18:45:51.084Z,98330.58
2023-05-10T18:48:19.320Z,98334.88
2023-05-10T18:50:47.733Z,98338.80
2023-05-10T18:53:16.078Z,98342.48
2023-05-10T18:55:44.925Z,98342.19
2023-05-10T18:58:14.424Z,98343.88
2023-05-10T19:00:42.537Z,98345.88
2023-05-10T19:03:10.489Z,98345.89
2023-05-10T19:05:38.417Z,98348.86
2023-05-10T19:08:06.604Z,98351.14
2023-05-10T19:10:34.547Z,98350.35
2023-05-10T19:13:03.045Z,98351.55
2023-05-10T19:15:31.346Z,98354.73
2023-05-10T19:17:59.859Z,98353.42
2023-05-10T19:20:29.180Z,98352.61
2023-05-10T19:23:09.241Z,98356.61
2023-05-10T19:25:39.616Z,98360.05
2023-05-10T19:28:09.016Z,98360.29
2023-05-10T19:30:38.428Z,98365.55
2023-05-10T19:33:06.827Z,98362.83
2023-05-10T19:35:35.188Z,98361.17
2023-05-10T19:38:03.214Z,98362.08
2023-05-10T19:40:32.005Z,98359.98
2023-05-10T19:43:00.504Z,98365.31
2023-05-10T19:45:28.513Z,98372.27
2023-05-10T19:47:56.508Z,98366.91
2023-05-10T19:50:24.691Z,98368.80
2023-05-10T19:52:53.739Z,98363.53
2023-05-10T19:55:29.186Z,98368.61
2023-05-10T19:57:57.977Z,98368.73
2023-05-10T20:00:27.418Z,98369.30
2023-05-10T20:02:56.235Z,98366.83
2023-05-10T20:05:24.349Z,98365.72
2023-05-10T20:07:52.635Z,98367.73
2023-05-10T20:10:22.170Z,98367.06
2023-05-10T20:12:52.074Z,98367.27
2023-05-10T20:15:23.600Z,98366.52
2023-05-10T20:17:52.732Z,98362.94
2023-05-10T20:20:21.142Z,98363.39
2023-05-10T20:22:49.473Z,98366.15
2023-05-10T20:25:17.687Z,98367.30
2023-05-10T20:27:45.672Z,98367.52
2023-05-10T20:30:13.678Z,98364.90
2023-05-10T20:32:42.062Z,98368.11
2023-05-10T20:35:10.611Z,98369.25
2023-05-10T20:37:39.091Z,98368.38
2023-05-10T20:40:07.932Z,98372.89
2023-05-10T20:42:36.076Z,98369.42
2023-05-10T20:45:04.317Z,98375.00
2023-05-10T20:47:32.608Z,98370.86
2023-05-10T20:50:00.592Z,98378.04
2023-05-10T20:52:28.691Z,98380.77
2023-05-10T20:54:56.588Z,98379.44
2023-05-10T20:57:24.494Z,98381.64
2023-05-10T20:59:52.851Z,98384.61
2023-05-10T21:02:20.749Z,98380.30
2023-05-10T21:04:48.998Z,98382.04
2023-05-10T21:07:17.123Z,98377.87
2023-05-10T21:09:45.149Z,98380.27
2023-05-10T21:12:13.244Z,98382.10
2023-05-10T21:14:42.779Z,98379.88
2023-05-10T21:17:10.801Z,98377.53
2023-05-10T21:19:38.855Z,98379.42
2023-05-10T21:22:07.930Z,98378.64
2023-05-10T21:24:36.041Z,98375.52
2023-05-10T21:27:04.964Z,98375.07
2023-05-10T21:29:33.462Z,98380.10
2023-05-10T21:32:01.521Z,98380.23
2023-05-10T21:34:29.518Z,98379.77
2023-05-10T21:36:57.388Z,98382.13
2023-05-10T21:39:25.454Z,98383.08
2023-05-10T21:41:53.829Z,98385.35
2023-05-10T21:44:22.217Z,98388.02
2023-05-10T21:46:50.279Z,98388.35
2023-05-10T21:49:19.056Z,98388.67
2023-05-10T21:51:47.387Z,98386.17
2023-05-10T21:54:15.808Z,98383.77
2023-05-10T21:56:44.083Z,98380.39
2023-05-10T21:59:11.990Z,98381.71
2023-05-10T22:01:40.036Z,98379.82
2023-05-10T22:04:08.065Z,98378.99
2023-05-10T22:06:36.159Z,98379.13
2023-05-10T22:09:04.629Z,98378.83
2023-05-10T22:11:32.723Z,98380.30
2023-05-10T22:14:00.702Z,98380.41
2023-05-10T22:16:29.275Z,98379.38
2023-05-10T22:18:57.903Z,98379.96
2023-05-10T22:21:26.202Z,98381.50
2023-05-10T22:23:54.433Z,98383.22
2023-05-10T22:26:22.820Z,98384.01
2023-05-10T22:28:50.721Z,98379.06
2023-05-10T22:31:18.692Z,98384.50
2023-05-10T22:33:46.694Z,98378.86
2023-05-10T22:36:15.372Z,98380.51
2023-05-10T22:38:43.352Z,98380.05
2023-05-10T22:41:11.345Z,98383.31
2023-05-10T22:43:39.492Z,98379.64
2023-05-10T22:46:07.504Z,98377.86
2023-05-10T22:48:35.460Z,98374.77
2023-05-10T22:51:03.808Z,98372.70
2023-05-10T22:53:31.985Z,98377.55
2023-05-10T22:56:00.216Z,98380.21
2023-05-10T22:58:28.172Z,98377.75
2023-05-10T23:00:56.195Z,98378.65
2023-05-10T23:03:24.911Z,98378.36
2023-05-10T23:05:52.880Z,98380.30
2023-05-10T23:08:20.902Z,98377.92
2023-05-10T23:10:48.794Z,98376.23
2023-05-10T23:13:16.973Z,98378.13
2023-05-10T23:15:44.997Z,98380.55
2023-05-10T23:18:13.254Z,98384.92
2023-05-10T23:20:42.032Z,98385.88
2023-05-10T23:23:10.726Z,98380.14
2023-05-10T23:25:38.611Z,98377.75
2023-05-10T23:28:06.838Z,98376.84
2023-05-10T23:30:34.820Z,98374.07
2023-05-10T23:33:03.359Z,98367.11
2023-05-10T23:35:31.995Z,98369.86
2023-05-10T23:37:59.888Z,98366.96
2023-05-10T23:40:28.008Z,98361.08
2023-05-10T23:42:56.114Z,98363.00
2023-05-10T23:45:24.073Z,98359.46
2023-05-10T23:47:52.764Z,98360.86
2023-05-10T23:50:20.929Z,98359.59
2023-05-10T23:52:49.442Z,98360.95
2023-05-10T23:55:17.756Z,98361.11
2023-05-10T23:57:46.163Z,98360.73
